Time;durP1;ratioP1;P1;durP2;ratioP2;P2;SDS_P1;SDS_P2;PMS_P1;PMS_P2;Temp;Humidity;BMP_temperature;BMP_pressure;BME280_temperature;BME280_humidity;BME280_pressure;Samples;Min_cycle;Max_cycle;Signal;HPM_P1;HPM_P2
2022/03/29 00:02:19;;;;;;;14.77;8.00;;;7.10;99.90;;;;;;5072083;28;20040;-73
2022/03/29 00:04:46;;;;;;;;;;;6.90;99.90;;;;;;5072327;28;20074;-70
2022/03/29 00:07:13;;;;;;;22.20;10.52;;;6.70;99.90;;;;;;5072164;28;19920;-73
2022/03/29 00:09:40;;;;;;;19.27;9.93;;;6.70;99.90;;;;;;5072412;28;20492;-71
2022/03/29 00:12:08;;;;;;;18.38;7.68;;;6.70;99.90;;;;;;5054232;28;20507;-73
2022/03/29 00:14:35;;;;;;;20.50;9.73;;;6.70;99.90;;;;;;5071718;28;20373;-72
2022/03/29 00:17:02;;;;;;;24.50;11.73;;;6.60;99.90;;;;;;5072256;28;20472;-72
2022/03/29 00:19:29;;;;;;;21.58;11.38;;;6.70;99.90;;;;;;5072218;28;20040;-72
2022/03/29 00:21:56;;;;;;;25.15;12.50;;;6.80;99.90;;;;;;5055237;28;20448;-72
2022/03/29 00:24:23;;;;;;;23.75;11.90;;;6.90;99.90;;;;;;5072329;28;20558;-72
2022/03/29 00:26:50;;;;;;;24.10;11.85;;;6.90;99.90;;;;;;5072004;28;20115;-73
2022/03/29 00:29:18;;;;;;;22.02;10.75;;;7.00;99.90;;;;;;5072086;28;20512;-72
2022/03/29 00:31:45;;;;;;;19.23;9.38;;;6.90;99.90;;;;;;5070967;28;20719;-73
2022/03/29 00:34:11;;;;;;;16.70;8.52;;;6.80;99.90;;;;;;5071860;28;20051;-72
2022/03/29 00:36:40;;;;;;;14.80;7.85;;;6.50;99.90;;;;;;5072060;28;20041;-73
2022/03/29 00:39:07;;;;;;;18.33;8.15;;;6.30;99.90;;;;;;5071175;28;20124;-72
2022/03/29 00:41:34;;;;;;;15.73;7.93;;;6.20;99.90;;;;;;5071341;28;20036;-73
2022/03/29 00:44:01;;;;;;;15.55;8.02;;;6.10;99.90;;;;;;5071939;28;20041;-71
2022/03/29 00:46:28;;;;;;;15.70;7.28;;;6.00;99.90;;;;;;5071582;28;20055;-73
2022/03/29 00:48:55;;;;;;;19.52;7.70;;;5.90;99.90;;;;;;5075038;28;20060;-73
2022/03/29 00:51:23;;;;;;;13.30;8.10;;;5.90;99.90;;;;;;5071330;28;20055;-73
2022/03/29 00:53:50;;;;;;;13.45;7.82;;;5.80;99.90;;;;;;5071762;28;20041;-73
2022/03/29 00:56:19;;;;;;;18.17;8.18;;;5.70;99.90;;;;;;5070845;28;20032;-74
2022/03/29 00:58:47;;;;;;;13.25;7.18;;;5.70;99.90;;;;;;5071584;28;20044;-70
2022/03/29 01:01:15;;;;;;;14.50;6.88;;;5.80;99.90;;;;;;5071293;28;20043;-72
2022/03/29 01:03:42;;;;;;;14.20;7.15;;;5.80;99.90;;;;;;5071643;28;20458;-71
2022/03/29 01:06:10;;;;;;;;;;;5.90;99.90;;;;;;5071450;28;20046;-71
2022/03/29 01:08:37;;;;;;;14.38;7.18;;;5.80;99.90;;;;;;5048045;28;20385;-73
2022/03/29 01:11:11;;;;;;;17.13;8.25;;;5.80;99.90;;;;;;5053172;28;20048;-71
2022/03/29 01:13:41;;;;;;;13.00;7.30;;;5.80;99.90;;;;;;5067271;28;20133;-72
2022/03/29 01:18:55;;;;;;;15.93;7.93;;;5.70;99.90;;;;;;5072537;28;20123;-72
2022/03/29 01:21:29;;;;;;;13.90;7.75;;;5.70;99.90;;;;;;5067934;28;20544;-73
2022/03/29 01:23:56;;;;;;;17.92;8.30;;;5.80;99.90;;;;;;5069022;28;20497;-73
2022/03/29 01:26:24;;;;;;;;;;;5.70;99.90;;;;;;5094811;22;20063;-66
2022/03/29 01:28:51;;;;;;;15.77;7.45;;;5.70;99.90;;;;;;5068592;28;19928;-68
2022/03/29 01:31:19;;;;;;;22.17;9.07;;;5.70;99.90;;;;;;5089268;28;20449;-66
2022/03/29 01:33:46;;;;;;;22.90;8.25;;;5.60;99.90;;;;;;5108698;28;20046;-68
2022/03/29 01:36:13;;;;;;;22.63;7.78;;;5.50;99.90;;;;;;5107533;28;20039;-66
2022/03/29 01:38:40;;;;;;;17.90;7.97;;;5.40;99.90;;;;;;5111577;28;20035;-67
2022/03/29 01:41:09;;;;;;;14.15;7.22;;;5.40;99.90;;;;;;5111281;28;20047;-67
2022/03/29 01:43:36;;;;;;;15.85;7.85;;;5.30;99.90;;;;;;5111790;28;20555;-67
2022/03/29 01:46:03;;;;;;;16.40;7.35;;;5.20;99.90;;;;;;5091011;28;20040;-67
2022/03/29 01:48:30;;;;;;;13.07;7.32;;;5.30;99.90;;;;;;5106610;28;20039;-67
2022/03/29 01:50:57;;;;;;;13.75;7.43;;;5.30;99.90;;;;;;5111231;28;20040;-66
2022/03/29 01:53:28;;;;;;;19.70;8.10;;;5.20;99.90;;;;;;5108436;28;20032;-66
2022/03/29 01:55:59;;;;;;;20.45;7.97;;;5.20;99.90;;;;;;5103344;28;20045;-67
2022/03/29 01:58:29;;;;;;;18.73;7.53;;;5.20;99.90;;;;;;5111618;28;20100;-66
2022/03/29 02:00:57;;;;;;;16.60;7.68;;;5.20;99.90;;;;;;5093051;28;20130;-66
2022/03/29 02:03:24;;;;;;;16.88;7.82;;;5.00;99.90;;;;;;5104062;28;20077;-66
2022/03/29 02:05:53;;;;;;;17.02;7.78;;;4.90;99.90;;;;;;5099221;28;20044;-66
2022/03/29 02:08:20;;;;;;;13.50;7.05;;;4.90;99.90;;;;;;5091136;28;20044;-67
2022/03/29 02:10:47;;;;;;;14.73;7.60;;;5.00;99.90;;;;;;5091198;28;20081;-66
2022/03/29 02:13:15;;;;;;;14.77;8.00;;;5.00;99.90;;;;;;5097912;28;20044;-66
2022/03/29 02:15:42;;;;;;;;;;;5.10;99.90;;;;;;5099804;28;20051;-65
2022/03/29 02:18:09;;;;;;;16.02;6.85;;;5.10;99.90;;;;;;5091000;28;19926;-66
2022/03/29 02:20:35;;;;;;;16.10;7.47;;;5.10;99.90;;;;;;5091130;28;20044;-66
2022/03/29 02:23:07;;;;;;;14.93;7.82;;;5.10;99.90;;;;;;5098365;28;20407;-66
2022/03/29 02:25:35;;;;;;;19.45;8.50;;;5.10;99.90;;;;;;5097239;28;20081;-66
2022/03/29 02:28:03;;;;;;;14.57;8.23;;;5.10;99.90;;;;;;5099353;28;20032;-66
2022/03/29 02:30:32;;;;;;;15.93;7.10;;;5.10;99.90;;;;;;5093530;28;20040;-66
2022/03/29 02:33:01;;;;;;;18.33;8.20;;;5.10;99.90;;;;;;5092996;28;20124;-66
2022/03/29 02:35:28;;;;;;;18.65;8.30;;;5.10;99.90;;;;;;5104525;28;20040;-66
2022/03/29 02:37:55;;;;;;;17.48;7.70;;;5.10;99.90;;;;;;5097491;28;20036;-66
2022/03/29 02:40:22;;;;;;;14.87;9.10;;;5.10;99.90;;;;;;5094342;28;20113;-66
2022/03/29 02:42:51;;;;;;;17.60;8.18;;;5.10;99.90;;;;;;5093987;28;20662;-66
2022/03/29 02:45:24;;;;;;;16.75;8.63;;;5.10;99.90;;;;;;5093948;28;20043;-66
2022/03/29 02:47:53;;;;;;;18.58;8.60;;;5.10;99.90;;;;;;5104021;28;20044;-66
2022/03/29 02:50:23;;;;;;;19.25;9.10;;;5.00;99.90;;;;;;5114737;28;20507;-66
2022/03/29 02:52:52;;;;;;;15.57;7.80;;;5.00;99.90;;;;;;5111656;28;20396;-66
2022/03/29 02:55:21;;;;;;;19.20;8.27;;;5.00;99.90;;;;;;5102404;28;20068;-66
2022/03/29 02:57:49;;;;;;;16.63;8.23;;;5.00;99.90;;;;;;5094086;28;20044;-66
2022/03/29 03:00:17;;;;;;;15.90;8.27;;;5.00;99.90;;;;;;5102187;28;20508;-66
2022/03/29 03:02:50;;;;;;;16.23;7.35;;;5.00;99.90;;;;;;5103443;28;20052;-66
2022/03/29 03:05:21;;;;;;;17.60;8.23;;;5.00;99.90;;;;;;5105668;28;20115;-66
2022/03/29 03:07:48;;;;;;;19.10;8.38;;;4.90;99.90;;;;;;5114179;28;20046;-66
2022/03/29 03:10:16;;;;;;;16.95;7.70;;;4.80;99.90;;;;;;5107976;28;20051;-66
2022/03/29 03:12:44;;;;;;;16.90;7.50;;;4.80;99.90;;;;;;5101920;28;20044;-66
2022/03/29 03:15:14;;;;;;;14.38;7.93;;;4.70;99.90;;;;;;5094012;28;20052;-66
2022/03/29 03:17:41;;;;;;;16.13;7.40;;;4.60;99.90;;;;;;5093762;28;20047;-66
2022/03/29 03:20:08;;;;;;;15.00;7.93;;;4.60;99.90;;;;;;5097192;28;20104;-66
2022/03/29 03:22:36;;;;;;;20.42;7.78;;;4.60;99.90;;;;;;5104814;28;20040;-66
2022/03/29 03:25:05;;;;;;;18.63;8.57;;;4.50;99.90;;;;;;5113943;28;20044;-66
2022/03/29 03:27:34;;;;;;;18.38;8.30;;;4.30;99.90;;;;;;5113808;28;20040;-66
2022/03/29 03:30:03;;;;;;;16.92;8.65;;;4.30;99.90;;;;;;5103881;28;20067;-66
2022/03/29 03:32:30;;;;;;;17.65;8.38;;;4.30;99.90;;;;;;5111062;28;20035;-66
2022/03/29 03:34:57;;;;;;;19.05;8.50;;;4.30;99.90;;;;;;5110433;28;20055;-66
2022/03/29 03:37:26;;;;;;;14.77;8.20;;;4.40;99.90;;;;;;5107236;28;20048;-66
2022/03/29 03:39:53;;;;;;;16.98;8.10;;;4.50;99.90;;;;;;5077509;28;20043;-66
2022/03/29 03:42:20;;;;;;;15.52;8.55;;;4.60;99.90;;;;;;5106706;28;20047;-66
2022/03/29 03:44:47;;;;;;;20.83;9.02;;;4.60;99.90;;;;;;5091271;28;20449;-66
2022/03/29 03:47:14;;;;;;;14.73;8.75;;;4.60;99.90;;;;;;5103448;28;20051;-67
2022/03/29 03:49:41;;;;;;;15.73;8.75;;;4.60;99.90;;;;;;5109930;28;20067;-66
2022/03/29 03:52:09;;;;;;;12.48;6.30;;;4.50;99.90;;;;;;5113042;28;20057;-67
2022/03/29 03:54:36;;;;;;;19.83;8.40;;;4.50;99.90;;;;;;5106717;28;20104;-67
2022/03/29 03:57:04;;;;;;;16.40;8.15;;;4.60;99.90;;;;;;5099918;28;20080;-66
2022/03/29 03:59:32;;;;;;;15.95;8.00;;;4.50;99.90;;;;;;5095632;28;20508;-66
2022/03/29 04:02:00;;;;;;;16.25;8.07;;;4.50;99.90;;;;;;5094969;28;20043;-66
2022/03/29 04:04:27;;;;;;;16.27;8.30;;;4.60;99.90;;;;;;5104418;28;20043;-66
2022/03/29 04:06:54;;;;;;;16.35;8.50;;;4.60;99.90;;;;;;5113105;28;20155;-66
2022/03/29 04:09:21;;;;;;;17.23;9.50;;;4.60;99.90;;;;;;5109713;28;20036;-66
2022/03/29 04:11:48;;;;;;;20.55;8.38;;;4.50;99.90;;;;;;5108998;28;20077;-66
2022/03/29 04:14:16;;;;;;;18.88;8.75;;;4.50;99.90;;;;;;5104587;28;20105;-66
2022/03/29 04:16:43;;;;;;;17.08;8.10;;;4.50;99.90;;;;;;5108876;28;20495;-66
2022/03/29 04:19:10;;;;;;;18.25;9.57;;;4.50;99.90;;;;;;5095482;28;20047;-67
2022/03/29 04:21:37;;;;;;;25.85;10.30;;;4.50;99.90;;;;;;5098993;28;20032;-66
2022/03/29 04:24:04;;;;;;;19.52;8.85;;;4.50;99.90;;;;;;5103082;28;20483;-66
2022/03/29 04:26:31;;;;;;;20.10;9.48;;;4.30;99.90;;;;;;5094978;28;20441;-67
2022/03/29 04:28:58;;;;;;;18.15;9.13;;;4.20;99.90;;;;;;5099933;28;20043;-66
2022/03/29 04:31:25;;;;;;;26.80;10.80;;;4.10;99.90;;;;;;5102375;28;20036;-67
2022/03/29 04:33:52;;;;;;;24.58;10.13;;;4.10;99.90;;;;;;5100058;28;20063;-67
2022/03/29 04:36:19;;;;;;;26.05;12.18;;;4.10;99.90;;;;;;5099482;28;20104;-67
2022/03/29 04:38:46;;;;;;;26.08;10.38;;;4.10;99.90;;;;;;5099974;28;20044;-67
2022/03/29 04:41:13;;;;;;;21.40;11.77;;;4.10;99.90;;;;;;5099495;28;20063;-66
2022/03/29 04:43:40;;;;;;;22.88;11.82;;;4.10;99.90;;;;;;5100838;28;20044;-66
2022/03/29 04:46:07;;;;;;;28.33;12.00;;;4.10;99.90;;;;;;5103645;28;20066;-67
2022/03/29 04:48:34;;;;;;;30.20;12.18;;;4.20;99.90;;;;;;5099822;28;20066;-66
2022/03/29 04:51:02;;;;;;;26.10;11.70;;;4.20;99.90;;;;;;5081577;28;20071;-66
2022/03/29 04:53:29;;;;;;;;;;;4.20;99.90;;;;;;5098856;28;20068;-67
2022/03/29 04:55:56;;;;;;;23.73;10.82;;;4.20;99.90;;;;;;5103571;28;19969;-66
2022/03/29 04:58:24;;;;;;;20.42;10.73;;;4.10;99.90;;;;;;5111396;28;20054;-67
2022/03/29 05:00:52;;;;;;;25.33;10.73;;;4.10;99.90;;;;;;5107015;28;20051;-67
2022/03/29 05:03:19;;;;;;;25.27;11.75;;;4.10;99.90;;;;;;5103555;28;20063;-66
2022/03/29 05:05:46;;;;;;;19.75;9.68;;;4.20;99.90;;;;;;5111850;28;20036;-66
2022/03/29 05:08:13;;;;;;;16.88;8.80;;;4.20;99.90;;;;;;5110805;28;20039;-67
2022/03/29 05:10:40;;;;;;;19.23;9.75;;;4.20;99.90;;;;;;5091327;28;20048;-67
2022/03/29 05:13:09;;;;;;;28.10;10.45;;;4.20;99.90;;;;;;5091153;28;20538;-67
2022/03/29 05:15:36;;;;;;;23.98;10.07;;;4.20;99.90;;;;;;5091703;28;20048;-66
2022/03/29 05:18:04;;;;;;;;;;;4.20;99.90;;;;;;5091344;28;20040;-67
2022/03/29 05:20:31;;;;;;;22.40;9.35;;;4.20;99.90;;;;;;5091353;28;20641;-67
2022/03/29 05:23:00;;;;;;;27.55;9.65;;;4.20;99.90;;;;;;5091261;28;20522;-66
2022/03/29 05:25:27;;;;;;;21.80;9.38;;;4.30;99.90;;;;;;5090928;28;20051;-67
2022/03/29 05:27:58;;;;;;;24.02;9.73;;;4.40;99.90;;;;;;5090567;28;20048;-67
2022/03/29 05:30:24;;;;;;;20.50;10.38;;;4.50;99.90;;;;;;5091151;28;20134;-66
2022/03/29 05:32:57;;;;;;;21.20;9.95;;;4.60;99.90;;;;;;5091150;28;20504;-67
2022/03/29 05:35:29;;;;;;;17.58;9.02;;;4.60;99.90;;;;;;5090695;28;20572;-66
2022/03/29 05:37:58;;;;;;;24.48;10.32;;;4.70;99.90;;;;;;5091116;28;20063;-66
2022/03/29 05:40:26;;;;;;;26.88;11.30;;;4.80;99.90;;;;;;5091429;28;20063;-67
2022/03/29 05:42:53;;;;;;;24.88;12.43;;;4.80;99.90;;;;;;5096084;28;20047;-66
2022/03/29 05:45:21;;;;;;;24.48;13.90;;;4.90;99.90;;;;;;5073114;28;20036;-66
2022/03/29 05:50:34;;;;;;;33.63;13.75;;;4.90;99.90;;;;;;5091113;28;19920;-67
2022/03/29 05:53:02;;;;;;;28.85;13.00;;;5.00;99.90;;;;;;5093637;28;20040;-66
2022/03/29 05:55:29;;;;;;;23.90;12.38;;;5.10;99.90;;;;;;5102865;28;20035;-66
2022/03/29 05:57:56;;;;;;;26.27;13.18;;;5.10;99.90;;;;;;5111904;28;20047;-66
2022/03/29 06:00:25;;;;;;;;;;;5.10;99.90;;;;;;5112062;28;20048;-66
2022/03/29 06:02:53;;;;;;;29.58;12.20;;;5.20;99.90;;;;;;5079782;28;19920;-66
2022/03/29 06:05:20;;;;;;;30.15;11.95;;;5.20;99.90;;;;;;5097259;28;20036;-66
2022/03/29 06:07:47;;;;;;;23.30;11.55;;;5.20;99.90;;;;;;5091165;28;20044;-66
2022/03/29 06:10:15;;;;;;;22.25;10.40;;;5.20;99.90;;;;;;5094268;28;20039;-67
2022/03/29 06:12:45;;;;;;;18.73;9.80;;;5.10;99.90;;;;;;5102861;28;20062;-66
2022/03/29 06:15:13;;;;;;;23.02;10.70;;;5.20;99.90;;;;;;5115355;28;20047;-67
2022/03/29 06:17:40;;;;;;;20.60;10.07;;;5.20;99.90;;;;;;5115003;28;20051;-67
2022/03/29 06:20:09;;;;;;;25.02;10.02;;;5.30;99.90;;;;;;5110710;28;20047;-67
2022/03/29 06:22:43;;;;;;;23.17;10.77;;;5.40;99.90;;;;;;5102799;28;20044;-66
2022/03/29 06:25:12;;;;;;;22.92;10.40;;;5.50;99.90;;;;;;5094637;28;20440;-66
2022/03/29 06:27:39;;;;;;;20.45;10.77;;;5.70;99.90;;;;;;5094633;28;20048;-67
2022/03/29 06:30:08;;;;;;;20.42;10.63;;;5.80;99.90;;;;;;5102757;28;20047;-66
2022/03/29 06:32:45;;;;;;;19.70;10.73;;;6.00;99.90;;;;;;5110193;28;20035;-66
2022/03/29 06:35:12;;;;;;;21.92;11.07;;;6.20;99.90;;;;;;5115108;28;20051;-66
2022/03/29 06:37:40;;;;;;;25.50;11.88;;;6.30;99.90;;;;;;5108748;28;20056;-67
2022/03/29 06:40:08;;;;;;;25.02;13.13;;;6.50;99.90;;;;;;5106329;28;20052;-67
2022/03/29 06:42:36;;;;;;;32.13;13.38;;;6.70;99.90;;;;;;5114328;28;20084;-67
2022/03/29 06:45:03;;;;;;;;;;;6.80;99.90;;;;;;5115241;28;20051;-67
2022/03/29 06:47:30;;;;;;;26.98;12.70;;;6.90;99.90;;;;;;5108083;28;19951;-67
2022/03/29 06:49:57;;;;;;;30.33;12.70;;;7.00;99.90;;;;;;5106117;28;20043;-67
2022/03/29 06:52:26;;;;;;;;;;;7.20;99.90;;;;;;5114707;28;20093;-67
2022/03/29 06:54:53;;;;;;;22.10;10.98;;;7.40;99.90;;;;;;5111540;28;20014;-67
2022/03/29 06:57:20;;;;;;;24.55;10.50;;;7.40;99.90;;;;;;5102301;28;20040;-67
2022/03/29 06:59:47;;;;;;;25.17;11.73;;;7.40;99.90;;;;;;5094040;28;20114;-67
2022/03/29 07:02:14;;;;;;;29.80;12.15;;;7.60;99.90;;;;;;5093542;28;20047;-67
2022/03/29 07:04:42;;;;;;;25.83;12.73;;;7.60;99.90;;;;;;5093902;28;20561;-67
2022/03/29 07:07:09;;;;;;;30.23;13.60;;;7.80;99.90;;;;;;5093756;28;20051;-67
2022/03/29 07:12:23;;;;;;;24.48;12.88;;;8.10;99.90;;;;;;5093338;28;20047;-67
2022/03/29 07:14:50;;;;;;;37.55;13.82;;;8.30;99.90;;;;;;5093793;28;20119;-67
2022/03/29 07:17:18;;;;;;;;;;;8.30;99.90;;;;;;5094090;28;20048;-67
2022/03/29 07:19:46;;;;;;;26.48;12.82;;;8.50;99.90;;;;;;5093013;28;20022;-67
2022/03/29 07:22:13;;;;;;;25.02;12.77;;;8.40;99.90;;;;;;5092427;28;20063;-68
2022/03/29 07:24:40;;;;;;;23.13;12.88;;;8.40;99.90;;;;;;5093535;28;20119;-67
2022/03/29 07:27:08;;;;;;;26.25;12.55;;;8.50;99.90;;;;;;5112582;22;20040;-70
2022/03/29 07:29:36;;;;;;;25.20;12.27;;;8.50;99.90;;;;;;5100183;28;20083;-70
2022/03/29 07:32:04;;;;;;;25.85;12.70;;;8.60;99.90;;;;;;5112736;28;20028;-71
2022/03/29 07:34:35;;;;;;;24.55;12.43;;;8.60;99.90;;;;;;5113730;28;20048;-71
2022/03/29 07:37:03;;;;;;;24.65;12.95;;;8.70;99.90;;;;;;5095809;28;20043;-72
2022/03/29 07:39:30;;;;;;;22.85;12.48;;;8.80;99.90;;;;;;5106766;28;20043;-72
2022/03/29 07:41:57;;;;;;;28.55;12.18;;;8.90;99.90;;;;;;5104724;28;20043;-72
2022/03/29 07:44:24;;;;;;;23.55;13.15;;;9.00;99.90;;;;;;5113518;28;20575;-72
2022/03/29 07:46:51;;;;;;;20.77;12.57;;;9.10;99.90;;;;;;5113517;28;20044;-73
2022/03/29 07:49:18;;;;;;;23.55;11.80;;;9.20;99.90;;;;;;5104056;28;20048;-72
2022/03/29 07:52:06;;;;;;;24.23;12.38;;;9.30;99.90;;;;;;5092677;28;20086;-72
2022/03/29 07:54:33;;;;;;;27.17;12.38;;;9.50;99.90;;;;;;5092919;28;20043;-72
2022/03/29 07:57:01;;;;;;;24.15;13.23;;;9.70;99.90;;;;;;5093059;28;20048;-72
2022/03/29 07:59:28;;;;;;;22.85;13.23;;;9.90;99.90;;;;;;5101166;28;20043;-72
2022/03/29 08:01:56;;;;;;;25.80;12.30;;;10.10;99.90;;;;;;5111266;28;20043;-72
2022/03/29 08:04:23;;;;;;;30.33;13.45;;;10.30;99.90;;;;;;5113218;28;20048;-73
2022/03/29 08:06:50;;;;;;;21.42;12.48;;;10.50;99.90;;;;;;5108903;28;20039;-73
2022/03/29 08:09:17;;;;;;;32.15;13.13;;;10.80;99.90;;;;;;5106196;28;20067;-72
2022/03/29 08:11:44;;;;;;;22.05;11.95;;;11.00;99.90;;;;;;5112822;28;20058;-73
2022/03/29 08:14:12;;;;;;;25.63;13.55;;;11.10;99.90;;;;;;5109547;28;20035;-73
2022/03/29 08:16:41;;;;;;;25.92;12.25;;;11.30;99.90;;;;;;5100883;28;20048;-73
2022/03/29 08:19:08;;;;;;;26.17;12.90;;;11.50;99.90;;;;;;5092437;28;20073;-73
2022/03/29 08:21:50;;;;;;;24.52;12.65;;;11.60;99.90;;;;;;5092270;28;20048;-72
2022/03/29 08:24:19;;;;;;;23.02;13.52;;;11.50;99.90;;;;;;5097482;28;20072;-73
2022/03/29 08:26:48;;;;;;;28.10;13.40;;;11.50;99.90;;;;;;5103927;28;20040;-73
2022/03/29 08:29:16;;;;;;;25.73;13.50;;;11.50;99.90;;;;;;5113081;28;20055;-73
2022/03/29 08:31:45;;;;;;;25.02;13.48;;;11.60;99.90;;;;;;5112139;28;20050;-72
2022/03/29 08:34:12;;;;;;;30.55;12.88;;;11.70;99.90;;;;;;5104994;28;20561;-72
2022/03/29 08:36:39;;;;;;;25.77;13.00;;;11.90;99.80;;;;;;5108663;28;20067;-72
2022/03/29 08:39:07;;;;;;;22.85;12.55;;;12.00;99.60;;;;;;5112545;28;20051;-73
2022/03/29 08:41:42;;;;;;;21.67;11.95;;;12.10;98.50;;;;;;5103968;28;20097;-72
2022/03/29 08:44:10;;;;;;;28.27;13.15;;;12.30;98.50;;;;;;5100349;28;20051;-73
2022/03/29 08:46:38;;;;;;;25.08;12.77;;;12.00;98.70;;;;;;5091999;28;20545;-72
2022/03/29 08:49:06;;;;;;;19.63;12.10;;;12.30;97.50;;;;;;5092142;28;20047;-72
2022/03/29 08:51:34;;;;;;;22.10;12.93;;;12.40;98.10;;;;;;5098643;28;20112;-73
2022/03/29 08:54:01;;;;;;;21.38;12.27;;;12.50;97.20;;;;;;5103817;28;20067;-73
2022/03/29 08:56:28;;;;;;;23.27;13.10;;;12.50;96.90;;;;;;5111985;28;20043;-72
2022/03/29 08:58:56;;;;;;;26.10;12.50;;;12.70;96.80;;;;;;5108931;28;20036;-72
2022/03/29 09:01:23;;;;;;;24.55;13.27;;;12.80;96.40;;;;;;5105710;28;20036;-72
2022/03/29 09:04:03;;;;;;;22.80;12.25;;;12.80;95.70;;;;;;5094266;28;20042;-72
2022/03/29 09:06:31;;;;;;;25.52;13.32;;;12.90;95.60;;;;;;5107395;28;20057;-73
2022/03/29 09:08:58;;;;;;;23.08;12.85;;;13.30;95.10;;;;;;5103465;28;20457;-74
2022/03/29 09:11:39;;;;;;;24.88;12.57;;;13.60;93.50;;;;;;5111694;28;20039;-73
2022/03/29 09:14:07;;;;;;;23.45;12.52;;;13.80;92.30;;;;;;5112129;28;20054;-72
2022/03/29 09:16:34;;;;;;;22.00;12.35;;;13.80;92.10;;;;;;5099894;28;20040;-72
2022/03/29 09:19:03;;;;;;;22.60;12.50;;;13.80;90.50;;;;;;5111419;28;20496;-72
2022/03/29 09:21:40;;;;;;;25.33;12.68;;;14.10;89.70;;;;;;5111592;28;20039;-72
2022/03/29 09:24:14;;;;;;;25.80;12.82;;;14.30;88.00;;;;;;5111777;28;20036;-72
2022/03/29 09:26:51;;;;;;;23.10;13.25;;;14.40;90.30;;;;;;5099577;28;20046;-73
2022/03/29 09:29:18;;;;;;;25.63;13.95;;;14.50;85.90;;;;;;5073373;28;20446;-72
2022/03/29 09:31:47;;;;;;;24.08;12.10;;;14.60;88.20;;;;;;5091055;28;20563;-73
2022/03/29 09:34:15;;;;;;;22.63;12.90;;;14.70;86.00;;;;;;5091338;28;20132;-72
2022/03/29 09:36:48;;;;;;;25.40;12.93;;;14.70;85.80;;;;;;5099566;28;20860;-72
2022/03/29 09:39:37;;;;;;;21.75;12.70;;;14.70;86.40;;;;;;5111879;28;20040;-72
2022/03/29 09:42:09;;;;;;;23.08;13.45;;;14.90;80.40;;;;;;5109045;28;20491;-72
2022/03/29 09:44:47;;;;;;;25.90;12.70;;;14.80;77.40;;;;;;5087459;28;20036;-72
2022/03/29 09:47:20;;;;;;;24.70;13.60;;;15.00;78.70;;;;;;5115900;28;20138;-72
2022/03/29 09:49:58;;;;;;;21.95;13.30;;;15.20;76.50;;;;;;5115736;28;20050;-72
2022/03/29 09:52:31;;;;;;;27.33;13.90;;;15.30;75.30;;;;;;5108151;28;20039;-72
2022/03/29 09:55:21;;;;;;;21.60;12.68;;;15.40;74.90;;;;;;5103708;28;20067;-72
2022/03/29 09:57:51;;;;;;;29.27;13.82;;;15.60;73.70;;;;;;5095228;28;20414;-72
2022/03/29 10:00:29;;;;;;;28.52;13.32;;;15.80;71.70;;;;;;5094929;28;20032;-72
2022/03/29 10:02:57;;;;;;;27.33;13.27;;;15.90;74.10;;;;;;5105191;28;20066;-72
2022/03/29 10:05:26;;;;;;;23.17;13.80;;;15.80;72.10;;;;;;5115616;28;20040;-73
2022/03/29 10:10:49;;;;;;;24.98;13.73;;;15.80;70.70;;;;;;5109348;28;20378;-72
2022/03/29 10:13:20;;;;;;;27.30;14.15;;;15.70;71.30;;;;;;5107895;28;20050;-72
2022/03/29 10:15:47;;;;;;;27.20;13.98;;;15.80;68.90;;;;;;5115388;28;20054;-72
2022/03/29 10:18:15;;;;;;;32.95;14.10;;;16.00;70.40;;;;;;5115341;28;20048;-74
2022/03/29 10:20:43;;;;;;;25.88;14.40;;;16.20;70.90;;;;;;5094592;28;20203;-72
2022/03/29 10:23:14;;;;;;;26.13;13.73;;;16.20;68.90;;;;;;5094541;28;20123;-73
2022/03/29 10:25:42;;;;;;;27.25;14.63;;;16.30;68.10;;;;;;5094724;28;20048;-73
2022/03/29 10:28:10;;;;;;;28.25;14.55;;;16.60;68.60;;;;;;5093917;28;20093;-73
2022/03/29 10:30:40;;;;;;;29.08;15.63;;;16.80;66.50;;;;;;5094561;28;20044;-73
2022/03/29 10:33:25;;;;;;;23.65;13.75;;;16.80;67.40;;;;;;5094417;28;20076;-73
2022/03/29 10:36:13;;;;;;;28.75;14.68;;;17.00;66.70;;;;;;5093864;28;20044;-73
2022/03/29 10:38:46;;;;;;;32.40;16.60;;;17.10;65.70;;;;;;5094349;28;20044;-73
2022/03/29 10:41:28;;;;;;;29.00;16.17;;;17.30;64.20;;;;;;5094035;28;20048;-73
2022/03/29 10:44:04;;;;;;;25.13;14.52;;;17.50;64.00;;;;;;5094541;28;20044;-73
2022/03/29 10:46:39;;;;;;;35.35;16.92;;;17.70;62.70;;;;;;5093767;28;20493;-73
2022/03/29 10:49:24;;;;;;;26.90;15.20;;;17.70;63.70;;;;;;5094357;28;20048;-73
2022/03/29 10:51:53;;;;;;;25.27;15.98;;;17.70;60.80;;;;;;5094016;28;20122;-73
2022/03/29 10:54:44;;;;;;;31.38;15.57;;;17.60;62.30;;;;;;5093515;28;20059;-74
2022/03/29 10:57:27;;;;;;;29.70;16.15;;;17.60;60.80;;;;;;5101540;28;20040;-73
2022/03/29 11:00:06;;;;;;;29.35;16.27;;;17.30;60.30;;;;;;5094178;28;20043;-73
2022/03/29 11:02:33;;;;;;;30.58;17.05;;;17.50;59.90;;;;;;5100800;28;20036;-73
2022/03/29 11:05:08;;;;;;;34.92;17.27;;;17.60;60.10;;;;;;5105823;28;20463;-73
2022/03/29 11:07:38;;;;;;;29.77;16.65;;;17.90;58.80;;;;;;5114436;28;20044;-73
2022/03/29 11:10:18;;;;;;;27.48;17.38;;;18.00;58.20;;;;;;5111335;28;20039;-73
2022/03/29 11:12:53;;;;;;;30.08;16.42;;;17.90;58.00;;;;;;5105362;28;20047;-73
2022/03/29 11:15:38;;;;;;;31.40;16.52;;;18.00;62.50;;;;;;5113940;28;20067;-73
2022/03/29 11:18:30;;;;;;;32.00;16.45;;;18.10;61.40;;;;;;5114130;28;20479;-73
2022/03/29 11:21:04;;;;;;;28.73;16.13;;;18.40;62.60;;;;;;5103769;28;20085;-72
2022/03/29 11:23:52;;;;;;;31.38;16.77;;;18.70;61.40;;;;;;5114199;28;20096;-72
2022/03/29 11:26:19;;;;;;;26.98;16.65;;;18.80;58.90;;;;;;5113897;28;20058;-72
2022/03/29 11:28:54;;;;;;;31.95;15.75;;;18.90;57.10;;;;;;5109482;28;20441;-73
2022/03/29 11:31:23;;;;;;;28.00;17.23;;;19.20;58.40;;;;;;5106921;28;20043;-73
2022/03/29 11:33:54;;;;;;;30.40;16.48;;;19.10;59.00;;;;;;5113729;28;20063;-73
2022/03/29 11:36:22;;;;;;;28.63;17.13;;;19.10;57.30;;;;;;5113579;28;20063;-73
2022/03/29 11:38:49;;;;;;;37.67;16.75;;;19.40;58.50;;;;;;5102666;28;20047;-73
2022/03/29 11:41:24;;;;;;;31.05;16.13;;;19.60;57.90;;;;;;5113273;28;20044;-73
2022/03/29 11:43:58;;;;;;;28.63;17.52;;;19.70;55.80;;;;;;5113707;28;20040;-73
2022/03/29 11:46:42;;;;;;;27.17;16.23;;;19.60;56.70;;;;;;5101726;28;20048;-72
2022/03/29 11:49:09;;;;;;;31.63;16.83;;;19.70;56.80;;;;;;5093271;28;20496;-72
2022/03/29 11:51:37;;;;;;;27.52;16.27;;;19.60;56.70;;;;;;5092778;28;20051;-73
2022/03/29 11:54:04;;;;;;;26.23;16.10;;;19.60;56.10;;;;;;5097714;28;20042;-73
2022/03/29 11:56:36;;;;;;;32.33;16.65;;;19.60;55.80;;;;;;5097887;28;20047;-73
2022/03/29 11:59:06;;;;;;;30.90;18.35;;;19.50;55.00;;;;;;5092905;28;20051;-72
2022/03/29 12:01:34;;;;;;;25.80;17.13;;;19.50;55.80;;;;;;5092532;28;20445;-73
2022/03/29 12:04:04;;;;;;;29.25;15.75;;;19.40;57.80;;;;;;5101112;28;20149;-73
2022/03/29 12:06:46;;;;;;;26.80;16.38;;;19.40;55.80;;;;;;5107902;28;20399;-73
2022/03/29 12:09:21;;;;;;;27.08;17.30;;;19.60;56.00;;;;;;5113295;28;20043;-73
2022/03/29 12:11:48;;;;;;;36.83;17.55;;;19.50;56.50;;;;;;5104788;28;20481;-73
2022/03/29 12:14:17;;;;;;;31.05;16.10;;;19.60;55.80;;;;;;5105730;28;20043;-73
2022/03/29 12:16:47;;;;;;;28.98;16.35;;;19.70;55.10;;;;;;5094603;28;20385;-73
2022/03/29 12:19:16;;;;;;;32.67;17.33;;;19.80;55.90;;;;;;5112807;28;20499;-73
2022/03/29 12:21:49;;;;;;;27.95;16.00;;;19.70;54.20;;;;;;5104742;28;20059;-73
2022/03/29 12:24:25;;;;;;;26.90;15.45;;;19.50;53.80;;;;;;5106601;28;20126;-73
2022/03/29 12:27:02;;;;;;;25.88;16.05;;;19.80;53.00;;;;;;5112778;28;20036;-73
2022/03/29 12:29:31;;;;;;;29.50;15.45;;;20.00;54.70;;;;;;5112177;28;20047;-72
2022/03/29 12:32:01;;;;;;;26.98;15.20;;;19.90;53.60;;;;;;5101166;28;20079;-72
2022/03/29 12:34:30;;;;;;;26.58;14.90;;;19.90;53.70;;;;;;5092253;28;20066;-72
2022/03/29 12:37:02;;;;;;;23.80;13.00;;;20.00;53.20;;;;;;5092279;28;20040;-72
2022/03/29 12:39:35;;;;;;;25.10;13.98;;;19.90;52.60;;;;;;5098447;28;20032;-72
2022/03/29 12:42:03;;;;;;;25.80;14.32;;;19.90;54.20;;;;;;5103621;28;20039;-72
2022/03/29 12:44:36;;;;;;;27.30;14.05;;;19.80;53.20;;;;;;5112580;28;20438;-71
2022/03/29 12:47:04;;;;;;;27.13;13.95;;;19.90;53.80;;;;;;5108145;28;20052;-71
2022/03/29 12:49:33;;;;;;;23.77;13.43;;;19.80;54.50;;;;;;5100196;28;20040;-72
2022/03/29 12:52:03;;;;;;;21.90;13.30;;;19.70;52.90;;;;;;5091818;28;20386;-71
2022/03/29 12:54:39;;;;;;;21.67;11.00;;;19.60;54.20;;;;;;5091975;28;20044;-71
2022/03/29 12:57:08;;;;;;;21.95;11.73;;;19.50;54.30;;;;;;5096176;28;20155;-72
2022/03/29 12:59:37;;;;;;;19.63;10.52;;;19.50;55.30;;;;;;5096114;28;20489;-71
2022/03/29 13:02:19;;;;;;;25.27;10.00;;;19.50;54.50;;;;;;5091807;28;20036;-71
2022/03/29 13:04:52;;;;;;;24.83;9.75;;;19.40;53.30;;;;;;5091925;28;20481;-71